WetterOnline ( http://www.wetteronline.at )

Wetter aktuell Regensburg

Aktuelles Wetter: Regensburg/Oberhub (371m)

6-stündlich | Neueste Meldungen
Ortszeit Temperatur Wetter
Sa, 22.09. 14:00 17.5° C wolkig
Sa, 22.09. 8:00 10.2° C leicht bewölkt
Sa, 22.09. 2:00 12.9° C bewölkt
Fr, 21.09. 20:00 21.1° C bedeckt
Fr, 21.09. 14:00 25.5° C wolkenlos
Fr, 21.09. 8:00 13.9° C fast wolkenlos
Fr, 21.09. 2:00 15.4° C wolkenlos
Do, 20.09. 20:00 21.2° C wolkenlos
Ortszeit Temperatur Wetter
Sa, 22.09. 18:00 17.6° C bewölkt
Sa, 22.09. 17:50 17.6° C bewölkt
Sa, 22.09. 17:40 17.2° C bewölkt
Sa, 22.09. 17:30 17.2° C bewölkt
Sa, 22.09. 17:20 17.2° C bewölkt
Sa, 22.09. 17:10 17.3° C wolkig
Sa, 22.09. 17:00 17.4° C bewölkt
Sa, 22.09. 16:30 18.4° C leicht bewölkt
Sa, 22.09. 16:00 18.1° C wolkig
Sa, 22.09. 15:30 18.5° C leicht bewölkt
Sa, 22.09. 15:00 17.0° C wolkenlos
Ortszeit Relative Feuchte Sichtweite
Sa, 22.09. 14:00 40% 45 km
Sa, 22.09. 8:00 83% 50 km
Sa, 22.09. 2:00 79% 45 km
Fr, 21.09. 20:00 60% 45 km
Fr, 21.09. 14:00 51% 21 km
Fr, 21.09. 8:00 92% 8 km
Fr, 21.09. 2:00 90% 18 km
Do, 20.09. 20:00 66% 30 km
Ortszeit Relative Feuchte Sichtweite
Sa, 22.09. 18:00 41% 55 km
Sa, 22.09. 17:50 41% -
Sa, 22.09. 17:40 43% -
Sa, 22.09. 17:30 44% 65 km
Sa, 22.09. 17:20 44% -
Sa, 22.09. 17:10 45% -
Sa, 22.09. 17:00 42% 60 km
Sa, 22.09. 16:30 42% 55 km
Sa, 22.09. 16:00 42% 40 km
Sa, 22.09. 15:30 41% 40 km
Sa, 22.09. 15:00 40% 50 km
Ortszeit Niederschlagsmenge Niederschlagsart
Sa, 22.09. 14:00 0.0 l/m2 in 6 Std. -
Sa, 22.09. 8:00 0.1 l/m2 in 12 Std. -
Sa, 22.09. 2:00 0.1 l/m2 in 6 Std. Regen
Fr, 21.09. 20:00 0.1 l/m2 in 12 Std. Regen
Fr, 21.09. 14:00 0.0 l/m2 in 6 Std. -
Fr, 21.09. 8:00 0.0 l/m2 in 12 Std. -
Fr, 21.09. 2:00 0.0 l/m2 in 6 Std. -
Do, 20.09. 20:00 0.0 l/m2 in 12 Std. -
Ortszeit Niederschlagsmenge Niederschlagsart
Sa, 22.09. 18:00 0.0 l/m2 in 1 Std. -
Sa, 22.09. 17:50 keine Meldung -
Sa, 22.09. 17:40 keine Meldung -
Sa, 22.09. 17:30 0.0 l/m2 in 1 Std. -
Sa, 22.09. 17:20 keine Meldung -
Sa, 22.09. 17:10 keine Meldung -
Sa, 22.09. 17:00 0.0 l/m2 in 1 Std. -
Sa, 22.09. 16:30 0.0 l/m2 in 1 Std. -
Sa, 22.09. 16:00 0.0 l/m2 in 1 Std. -
Sa, 22.09. 15:30 0.0 l/m2 in 1 Std. -
Sa, 22.09. 15:00 0.0 l/m2 in 1 Std. -
Ortszeit Stärke Spitze Richtung
km/h Bft. km/h Grad Sektor
Sa, 22.09. 14:00 17 3 31 250° W
Sa, 22.09. 8:00 6 1 26 260° W
Sa, 22.09. 2:00 13 3 52 240° SW
Fr, 21.09. 20:00 18 3 58 250° W
Fr, 21.09. 14:00 13 3 24 140° SO
Fr, 21.09. 8:00 6 1 11 140° SO
Fr, 21.09. 2:00 6 1 11 140° SO
Do, 20.09. 20:00 7 2 18 130° SO
Ortszeit Stärke Spitze Richtung
km/h Bft. km/h Grad Sektor
Sa, 22.09. 18:00 7 2 18 240° SW
Sa, 22.09. 17:50 7 2 - 240° SW
Sa, 22.09. 17:40 4 1 - 260° W
Sa, 22.09. 17:30 4 1 14 300° NW
Sa, 22.09. 17:20 4 1 - 300° NW
Sa, 22.09. 17:10 6 1 - 240° SW
Sa, 22.09. 17:00 6 1 19 250° W
Sa, 22.09. 16:30 7 2 18 270° W
Sa, 22.09. 16:00 11 2 22 260° W
Sa, 22.09. 15:30 11 2 22 270° W
Sa, 22.09. 15:00 13 3 31 270° W
Ortszeit Untergrenze Bedeckung Gattung
total tief tief mittel hoch
Sa, 22.09. 14:00 1350 m 6/8 3/8 - - -
Sa, 22.09. 8:00 5400 m 4/8 3/8 - - -
Sa, 22.09. 2:00 780 m 8/8 4/8 - - -
Fr, 21.09. 20:00 1800 m 8/8 8/8 - - -
Fr, 21.09. 14:00 - 0/8 0/8 - - -
Fr, 21.09. 8:00 10500 m 1/8 0/8 - - -
Fr, 21.09. 2:00 - 0/8 0/8 - - -
Do, 20.09. 20:00 - 0/8 0/8 - - -
Ortszeit Bedeckungsgrad in Achtel und Wolkenuntergrenze
Sa, 22.09. 18:00 5(1800m) 8(5100m) 8(7200m)
Sa, 22.09. 17:50 5(1800m) 8(5100m) 8(7200m)
Sa, 22.09. 17:40 7(1800m) 7(3600m) 8(5100m)
Sa, 22.09. 17:30 7(1800m) 7(3000m) 8(3600m)
Sa, 22.09. 17:20 7(1800m) 7(3000m) 8(3600m)
Sa, 22.09. 17:10 5(1800m) 7(3600m)
Sa, 22.09. 17:00 6(1800m) 7(3600m)
Sa, 22.09. 16:30 1(1800m) 5(3600m)
Sa, 22.09. 16:00 8(3900m)
Sa, 22.09. 15:30 2(3900m)
Sa, 22.09. 15:00 keine Wolken
Ortszeit Luftdruck NN (hPa) Tendenz (hPa in 3 Std.)
Sa, 22.09. 14:00 1023 - 0,9
Sa, 22.09. 8:00 1024 + 0,9
Sa, 22.09. 2:00 1021 + 3,1
Fr, 21.09. 20:00 1011 + 2,2
Fr, 21.09. 14:00 1010 - 2,0
Fr, 21.09. 8:00 1014 - 0,8
Fr, 21.09. 2:00 1016 - 1,3
Do, 20.09. 20:00 1017 - 0,8
Ortszeit Luftdruck NN (hPa) Tendenz (hPa in 3 Std.)
Sa, 22.09. 18:00 1020 - 1,7
Sa, 22.09. 17:50 1020 keine Meldung
Sa, 22.09. 17:40 1020 keine Meldung
Sa, 22.09. 17:30 1021 - 1,4
Sa, 22.09. 17:20 1021 keine Meldung
Sa, 22.09. 17:10 1021 keine Meldung
Sa, 22.09. 17:00 1021 - 1,8
Sa, 22.09. 16:30 1021 - 2,0
Sa, 22.09. 16:00 1021 - 1,8
Sa, 22.09. 15:30 1021 - 1,6
Sa, 22.09. 15:00 1022 - 1,6
Ortszeit Schneehöhe (cm)
Sa, 22.09. 14:00 -
Sa, 22.09. 8:00 -
Sa, 22.09. 2:00 -
Fr, 21.09. 20:00 -
Fr, 21.09. 14:00 -
Fr, 21.09. 8:00 -
Fr, 21.09. 2:00 -
Do, 20.09. 20:00 -
Ortszeit Schneehöhe (cm)
Sa, 22.09. 18:00 -
Sa, 22.09. 17:50 -
Sa, 22.09. 17:40 -
Sa, 22.09. 17:30 -
Sa, 22.09. 17:20 -
Sa, 22.09. 17:10 -
Sa, 22.09. 17:00 -
Sa, 22.09. 16:30 -
Sa, 22.09. 16:00 -
Sa, 22.09. 15:30 -
Sa, 22.09. 15:00 -
Link zu dieser Seite / Seite empfehlen

Das Wetter in ...